Time;durP1;ratioP1;P1;durP2;ratioP2;P2;SDS_P1;SDS_P2;PMS_P1;PMS_P2;Temp;Humidity;BMP_temperature;BMP_pressure;BME280_temperature;BME280_humidity;BME280_pressure;Samples;Min_cycle;Max_cycle;Signal;HPM_P1;HPM_P2
2022/03/20 00:00:37;;;;;;;15.80;10.77;;;9.10;48.30;9.00;97504.00;;;;4952811;28;20208;-89
2022/03/20 00:03:07;;;;;;;15.70;11.33;;;9.00;48.80;9.00;97512.00;;;;4951883;28;20732;-90
2022/03/20 00:05:38;;;;;;;17.70;12.20;;;9.00;48.40;9.00;97501.00;;;;4951678;28;20204;-90
2022/03/20 00:08:08;;;;;;;15.47;11.63;;;9.00;48.50;8.90;97495.00;;;;4955315;28;20257;-89
2022/03/20 00:10:38;;;;;;;17.63;12.47;;;8.90;48.50;8.90;97484.00;;;;4955461;28;20228;-89
2022/03/20 00:13:09;;;;;;;15.07;11.07;;;9.10;48.60;8.90;97490.00;;;;4951509;28;20220;-89
2022/03/20 00:15:41;;;;;;;18.50;12.30;;;8.90;48.50;8.90;97496.00;;;;4950788;29;20230;-90
2022/03/20 00:18:13;;;;;;;15.53;11.13;;;8.90;48.50;8.90;97494.00;;;;4950564;28;20192;-90
2022/03/20 00:20:43;;;;;;;16.50;11.87;;;8.90;48.70;8.90;97486.00;;;;4951318;28;20678;-90
2022/03/20 00:23:12;;;;;;;14.70;11.33;;;8.90;48.70;8.80;97486.00;;;;4950576;29;20212;-89
2022/03/20 00:25:44;;;;;;;15.27;11.20;;;8.80;48.60;8.80;97494.00;;;;4951568;28;20200;-89
2022/03/20 00:28:13;;;;;;;15.47;11.93;;;9.90;49.30;8.80;97485.00;;;;4948943;29;20214;-90
2022/03/20 00:30:40;;;;;;;15.20;11.63;;;8.90;48.90;8.80;97496.00;;;;4952289;28;20284;-89
2022/03/20 00:33:10;;;;;;;15.23;11.43;;;8.80;48.90;8.80;97484.00;;;;4950988;28;20223;-89
2022/03/20 00:35:38;;;;;;;18.77;11.80;;;8.70;49.00;8.80;97494.00;;;;4951721;28;20252;-90
2022/03/20 00:38:05;;;;;;;15.97;11.93;;;8.80;49.00;8.70;97487.00;;;;4951525;28;20203;-90
2022/03/20 00:40:32;;;;;;;16.40;11.87;;;8.70;49.00;8.70;97495.00;;;;4951812;28;20204;-90
2022/03/20 00:43:01;;;;;;;15.93;11.43;;;8.70;49.10;8.70;97489.00;;;;4951464;28;20793;-88
2022/03/20 00:45:29;;;;;;;16.00;11.50;;;8.70;49.20;8.70;97494.00;;;;4951084;28;20207;-90
2022/03/20 00:47:56;;;;;;;16.93;12.03;;;8.70;49.20;8.70;97502.00;;;;4951256;29;20200;-89
2022/03/20 00:50:24;;;;;;;16.13;11.50;;;8.70;49.20;8.70;97488.00;;;;4951596;28;20283;-91
2022/03/20 00:52:51;;;;;;;15.23;11.37;;;8.70;49.30;8.70;97490.00;;;;4948167;28;20200;-91
2022/03/20 00:55:18;;;;;;;16.87;11.80;;;8.70;49.40;8.70;97486.00;;;;4951721;28;20197;-89
2022/03/20 00:57:45;;;;;;;16.47;11.87;;;8.70;49.40;8.70;97487.00;;;;4951820;28;20214;-90
2022/03/20 01:00:16;;;;;;;17.87;11.83;;;9.10;49.60;8.60;97491.00;;;;4951809;28;20574;-89
2022/03/20 01:02:46;;;;;;;15.97;12.00;;;8.70;49.50;8.60;97499.00;;;;4951662;28;20196;-90
2022/03/20 01:05:14;;;;;;;16.30;12.47;;;8.60;49.40;8.60;97497.00;;;;4951132;28;20196;-89
2022/03/20 01:07:42;;;;;;;18.37;12.80;;;8.60;49.50;8.60;97501.00;;;;4949558;28;20204;-90
2022/03/20 01:10:12;;;;;;;16.60;11.67;;;8.60;49.60;8.60;97498.00;;;;4947712;28;20196;-89
2022/03/20 01:12:40;;;;;;;17.00;11.93;;;8.60;49.70;8.60;97511.00;;;;4950346;29;20203;-89
2022/03/20 01:15:15;;;;;;;16.97;11.80;;;8.60;49.70;8.60;97512.00;;;;4950448;28;20662;-90
2022/03/20 01:17:43;;;;;;;14.00;10.97;;;8.60;49.70;8.50;97509.00;;;;4945594;28;20275;-90
2022/03/20 01:20:12;;;;;;;15.90;12.13;;;8.70;49.80;8.50;97498.00;;;;4953320;28;20585;-89
2022/03/20 01:22:40;;;;;;;17.83;12.73;;;8.50;49.80;8.50;97498.00;;;;4956316;29;20283;-90
2022/03/20 01:25:09;;;;;;;16.00;11.50;;;8.50;49.80;8.50;97502.00;;;;4949489;28;20265;-90
2022/03/20 01:27:38;;;;;;;15.13;12.23;;;8.50;49.80;8.50;97501.00;;;;4951666;28;20294;-90
2022/03/20 01:30:07;;;;;;;15.17;11.63;;;8.50;49.90;8.40;97500.00;;;;4951391;28;20254;-89
2022/03/20 01:32:35;;;;;;;16.90;12.10;;;8.50;50.00;8.40;97510.00;;;;4951823;28;20206;-90
2022/03/20 01:35:04;;;;;;;17.23;12.43;;;8.40;50.10;8.40;97493.00;;;;4949529;28;20223;-89
2022/03/20 01:37:31;;;;;;;15.53;12.20;;;8.40;50.10;8.40;97495.00;;;;4951173;28;20224;-90
2022/03/20 01:39:58;;;;;;;19.83;12.80;;;8.40;50.10;8.30;97486.00;;;;4950786;28;20200;-90
2022/03/20 01:42:25;;;;;;;20.30;13.10;;;8.40;50.20;8.40;97487.00;;;;4951644;28;20580;-89
2022/03/20 01:44:52;;;;;;;15.83;11.80;;;8.40;50.20;8.40;97485.00;;;;4950529;28;20231;-90
2022/03/20 01:47:20;;;;;;;17.57;12.17;;;8.40;50.30;8.30;97490.00;;;;4951220;28;20245;-90
2022/03/20 01:49:47;;;;;;;16.00;11.80;;;8.40;50.30;8.30;97485.00;;;;4951605;28;20200;-89
2022/03/20 01:52:24;;;;;;;15.77;11.73;;;8.30;50.90;8.30;97494.00;;;;4951251;28;20366;-90
2022/03/20 01:54:52;;;;;;;16.17;11.80;;;8.30;50.40;8.30;97491.00;;;;4949974;28;20223;-90
2022/03/20 01:57:22;;;;;;;18.03;12.93;;;8.30;50.50;8.30;97495.00;;;;4950451;28;20227;-90
2022/03/20 01:59:51;;;;;;;16.13;11.80;;;8.30;50.50;8.20;97489.00;;;;4957288;28;20204;-90
2022/03/20 02:02:18;;;;;;;17.83;12.80;;;8.30;50.70;8.20;97490.00;;;;4956207;28;20192;-89
2022/03/20 02:04:46;;;;;;;16.47;12.53;;;8.40;50.80;8.20;97488.00;;;;4950532;28;20220;-90
2022/03/20 02:07:16;;;;;;;17.40;12.63;;;8.20;50.60;8.20;97488.00;;;;4950660;28;20572;-90
2022/03/20 02:09:44;;;;;;;21.60;12.73;;;8.20;50.70;8.20;97485.00;;;;4951320;28;20653;-89
2022/03/20 02:12:14;;;;;;;15.93;12.33;;;8.20;50.90;8.10;97490.00;;;;4949797;28;20200;-90
2022/03/20 02:14:41;;;;;;;16.83;12.03;;;9.20;51.40;8.10;97485.00;;;;4950489;28;20222;-90
2022/03/20 02:17:11;;;;;;;17.80;12.00;;;8.10;50.80;8.10;97482.00;;;;4949995;28;20216;-88
2022/03/20 02:19:39;;;;;;;17.13;12.33;;;8.10;51.00;8.10;97487.00;;;;4954096;28;20207;-89
2022/03/20 02:22:08;;;;;;;16.97;12.60;;;8.10;51.00;8.00;97484.00;;;;4953335;28;20206;-89
2022/03/20 02:24:41;;;;;;;18.43;12.93;;;8.10;51.10;8.00;97490.00;;;;4953734;28;20233;-89
2022/03/20 02:27:15;;;;;;;17.43;12.80;;;8.10;51.20;8.00;97488.00;;;;4948534;28;20588;-88
2022/03/20 02:29:43;;;;;;;16.47;12.57;;;8.00;51.00;8.00;97486.00;;;;4942834;28;20202;-89
2022/03/20 02:32:13;;;;;;;16.60;12.03;;;8.00;51.10;8.00;97490.00;;;;4953768;28;20206;-87
2022/03/20 02:34:41;;;;;;;16.83;11.93;;;8.00;51.30;8.00;97482.00;;;;4951529;28;20929;-89
2022/03/20 02:37:11;;;;;;;16.70;12.63;;;8.00;51.30;8.00;97490.00;;;;4958495;28;20433;-88
2022/03/20 02:39:38;;;;;;;18.07;12.40;;;8.90;51.70;8.00;97485.00;;;;4953721;28;20203;-89
2022/03/20 02:42:08;;;;;;;18.73;11.83;;;8.00;51.30;7.90;97490.00;;;;4953525;28;20207;-88
2022/03/20 02:44:55;;;;;;;17.20;12.30;;;8.00;51.40;7.90;97490.00;;;;4953744;28;20243;-89
2022/03/20 02:47:24;;;;;;;17.97;13.03;;;8.00;51.50;7.90;97484.00;;;;4952927;28;20290;-89
2022/03/20 02:49:55;;;;;;;18.00;13.07;;;7.90;51.40;7.90;97489.00;;;;4953225;28;20662;-89
2022/03/20 02:52:29;;;;;;;18.57;12.60;;;7.90;51.50;7.90;97481.00;;;;4953857;28;20207;-89
2022/03/20 02:55:01;;;;;;;20.67;13.03;;;7.90;51.50;7.90;97482.00;;;;4952187;28;20585;-90
2022/03/20 02:57:30;;;;;;;17.60;12.33;;;7.90;51.60;7.80;97481.00;;;;4953330;28;20220;-89
2022/03/20 03:00:00;;;;;;;16.70;11.83;;;7.90;51.60;7.80;97484.00;;;;4954283;28;20219;-87
2022/03/20 03:02:30;;;;;;;17.77;12.50;;;7.90;51.50;7.80;97483.00;;;;4953641;28;20220;-88
2022/03/20 03:04:59;;;;;;;17.50;12.43;;;7.80;51.60;7.80;97476.00;;;;4953299;28;20262;-89
2022/03/20 03:07:28;;;;;;;17.50;12.57;;;7.80;51.60;7.80;97480.00;;;;4953652;28;20262;-89
2022/03/20 03:12:40;;;;;;;19.50;13.07;;;7.80;51.70;7.70;97493.00;;;;4953870;29;20307;-88
2022/03/20 03:15:22;;;;;;;16.40;12.37;;;7.80;51.80;7.70;97496.00;;;;4953101;28;20209;-88
2022/03/20 03:17:50;;;;;;;17.97;12.97;;;7.80;51.90;7.70;97488.00;;;;4952216;28;20222;-89
2022/03/20 03:20:19;;;;;;;17.47;12.57;;;7.70;51.90;7.70;97489.00;;;;4952928;28;20196;-89
2022/03/20 03:22:47;;;;;;;17.30;11.43;;;7.70;51.90;7.70;97495.00;;;;4953180;28;20226;-89
2022/03/20 03:25:16;;;;;;;16.53;12.27;;;7.70;52.00;7.70;97495.00;;;;4953038;28;20283;-89
2022/03/20 03:27:43;;;;;;;18.10;13.43;;;7.70;51.90;7.70;97488.00;;;;4951865;28;20696;-89
2022/03/20 03:30:13;;;;;;;17.70;12.43;;;7.70;52.00;7.70;97496.00;;;;4952488;28;20200;-89
2022/03/20 03:32:41;;;;;;;17.57;12.80;;;7.70;52.30;7.70;97492.00;;;;4951958;28;20306;-88
2022/03/20 03:37:54;;;;;;;16.93;12.57;;;7.70;52.10;7.60;97496.00;;;;4951498;29;20234;-89
2022/03/20 03:40:22;;;;;;;18.40;13.23;;;7.70;52.10;7.60;97502.00;;;;4945734;28;20197;-89
2022/03/20 03:42:49;;;;;;;18.17;12.73;;;7.60;52.10;7.60;97497.00;;;;4948995;28;20203;-89
2022/03/20 03:45:16;;;;;;;17.67;12.77;;;7.60;52.10;7.60;97498.00;;;;4952893;29;20222;-89
2022/03/20 03:47:43;;;;;;;16.10;12.13;;;7.60;52.20;7.60;97512.00;;;;4951969;28;20204;-90
2022/03/20 03:50:11;;;;;;;17.27;12.37;;;7.60;52.20;7.50;97514.00;;;;4953315;29;20215;-88
2022/03/20 03:52:39;;;;;;;16.67;11.93;;;7.60;52.10;7.50;97501.00;;;;4957649;28;20200;-87
2022/03/20 03:55:08;;;;;;;18.83;12.87;;;7.50;52.20;7.50;97518.00;;;;4963256;28;20283;-88
2022/03/20 03:57:36;;;;;;;17.47;11.97;;;8.50;52.60;7.50;97519.00;;;;4966686;28;20284;-89
2022/03/20 04:00:04;;;;;;;18.40;12.43;;;7.50;52.10;7.40;97513.00;;;;4958920;28;20625;-88
2022/03/20 04:02:31;;;;;;;16.90;12.27;;;7.40;52.10;7.40;97518.00;;;;4953898;28;20211;-88
2022/03/20 04:04:58;;;;;;;17.17;12.47;;;7.40;52.10;7.40;97509.00;;;;4952643;28;20718;-87
2022/03/20 04:07:26;;;;;;;18.40;12.97;;;7.40;52.20;7.40;97512.00;;;;4952691;28;20582;-89
2022/03/20 04:09:53;;;;;;;17.80;12.13;;;7.60;52.40;7.30;97520.00;;;;4958429;28;20263;-88
2022/03/20 04:12:22;;;;;;;17.13;12.43;;;7.40;52.30;7.30;97509.00;;;;4956959;28;20188;-89
2022/03/20 04:14:49;;;;;;;16.93;11.70;;;7.30;52.30;7.30;97521.00;;;;4952057;28;20212;-89
2022/03/20 04:17:16;;;;;;;17.50;13.10;;;7.30;52.30;7.20;97522.00;;;;4952489;28;20216;-88
2022/03/20 04:19:43;;;;;;;18.43;12.47;;;7.30;52.40;7.20;97524.00;;;;4951812;28;20562;-89
2022/03/20 04:22:11;;;;;;;18.63;13.00;;;7.30;52.50;7.20;97522.00;;;;4952382;28;20238;-89
2022/03/20 04:24:37;;;;;;;18.53;12.97;;;7.20;52.50;7.10;97526.00;;;;4951764;28;20223;-89
2022/03/20 04:27:05;;;;;;;17.63;13.20;;;7.20;52.60;7.10;97532.00;;;;4952360;28;20211;-89
2022/03/20 04:29:33;;;;;;;17.93;12.70;;;7.20;52.60;7.10;97533.00;;;;4952831;28;20200;-89
2022/03/20 04:32:00;;;;;;;17.30;12.57;;;8.50;53.30;7.10;97540.00;;;;4952099;28;20694;-89
2022/03/20 04:34:27;;;;;;;18.93;12.53;;;7.10;52.70;7.10;97543.00;;;;4952131;28;20231;-87
2022/03/20 04:36:56;;;;;;;16.13;12.33;;;7.10;52.80;7.10;97531.00;;;;4951139;28;20228;-89
2022/03/20 04:39:23;;;;;;;18.53;12.73;;;7.10;52.80;7.10;97540.00;;;;4951927;28;20565;-89
2022/03/20 04:41:51;;;;;;;18.13;13.20;;;7.10;52.80;7.00;97541.00;;;;4952321;28;20192;-89
2022/03/20 04:44:18;;;;;;;18.23;13.23;;;7.20;53.00;7.00;97542.00;;;;4952192;28;20677;-88
2022/03/20 04:46:46;;;;;;;15.97;11.80;;;7.00;53.00;7.00;97542.00;;;;4952253;28;20216;-89
2022/03/20 05:00:14;;;;;;;19.53;12.70;;;7.00;53.70;6.90;97561.00;;;;4953549;28;20252;-89
2022/03/20 05:02:43;;;;;;;17.83;12.80;;;6.90;53.10;6.90;97551.00;;;;4961451;28;20196;-89
2022/03/20 05:05:10;;;;;;;24.65;17.52;;;6.90;53.30;6.90;97554.00;;;;4954299;28;20853;-88
2022/03/20 05:07:37;;;;;;;18.70;14.00;;;6.80;53.90;6.90;97574.00;;;;4950345;28;20670;-88
2022/03/20 05:15:36;;;;;;;19.13;13.27;;;6.90;53.60;6.80;97567.00;;;;4951784;29;20289;-89
2022/03/20 05:18:05;;;;;;;18.43;12.43;;;6.80;53.60;6.80;97565.00;;;;4951270;28;20222;-89
2022/03/20 05:20:32;;;;;;;18.03;12.67;;;6.80;53.70;6.80;97571.00;;;;4951492;28;20200;-88
2022/03/20 05:22:59;;;;;;;17.07;12.50;;;6.80;53.70;6.70;97569.00;;;;4950188;28;20226;-88
2022/03/20 05:25:28;;;;;;;18.17;13.33;;;6.80;53.70;6.70;97573.00;;;;4951096;28;20196;-88
2022/03/20 05:27:55;;;;;;;17.80;12.07;;;7.10;53.80;6.70;97569.00;;;;4950423;29;20671;-88
2022/03/20 05:30:23;;;;;;;17.63;12.60;;;6.80;53.80;6.70;97579.00;;;;4951029;28;20207;-89
2022/03/20 05:32:50;;;;;;;18.13;12.33;;;6.70;53.80;6.60;97577.00;;;;4950239;28;20188;-90
2022/03/20 05:35:19;;;;;;;18.13;12.97;;;6.70;53.90;6.60;97573.00;;;;4950860;28;20200;-88
2022/03/20 05:37:47;;;;;;;18.23;12.93;;;6.70;54.20;6.60;97567.00;;;;4950347;28;20223;-89
2022/03/20 05:40:17;;;;;;;15.90;11.80;;;6.70;54.00;6.60;97574.00;;;;4951357;28;20196;-88
2022/03/20 05:42:44;;;;;;;16.33;11.83;;;6.60;54.10;6.60;97581.00;;;;4951037;28;20204;-88
2022/03/20 05:45:17;;;;;;;17.70;12.67;;;6.60;54.10;6.50;97582.00;;;;4975393;23;20231;-81
2022/03/20 05:47:53;;;;;;;15.93;12.03;;;6.60;54.30;6.50;97583.00;;;;4945937;28;20208;-80
2022/03/20 05:50:25;;;;;;;17.97;12.57;;;6.60;54.30;6.50;97590.00;;;;4949581;28;20290;-81
2022/03/20 05:52:59;;;;;;;17.97;12.50;;;6.60;54.30;6.50;97581.00;;;;4948314;28;20196;-81
2022/03/20 05:58:15;;;;;;;19.90;13.03;;;6.50;54.60;6.50;97590.00;;;;4938613;28;20220;-84
2022/03/20 06:00:42;;;;;;;19.67;12.87;;;7.00;54.80;6.50;97596.00;;;;4950751;28;20207;-83
2022/03/20 06:03:11;;;;;;;17.53;13.27;;;6.50;54.60;6.60;97595.00;;;;4949717;28;20440;-84
2022/03/20 06:05:40;;;;;;;19.33;12.40;;;6.50;54.80;6.60;97599.00;;;;4942048;28;20603;-84
2022/03/20 06:08:12;;;;;;;16.47;11.67;;;6.50;54.90;6.70;97593.00;;;;4941185;28;20288;-83
2022/03/20 06:10:43;;;;;;;17.07;12.43;;;6.60;54.90;6.70;97598.00;;;;4939061;28;20196;-84
2022/03/20 06:13:11;;;;;;;18.03;12.83;;;6.60;55.00;6.80;97592.00;;;;4951265;28;20243;-83
2022/03/20 06:15:40;;;;;;;17.53;12.83;;;6.60;55.10;6.80;97609.00;;;;4951797;28;20279;-84
2022/03/20 06:18:12;;;;;;;17.77;12.80;;;6.60;55.10;6.80;97597.00;;;;4951349;29;20289;-85
2022/03/20 06:20:40;;;;;;;16.80;11.97;;;6.70;55.20;6.90;97610.00;;;;4954763;28;20729;-85
2022/03/20 06:23:07;;;;;;;17.20;11.43;;;6.60;55.10;6.90;97610.00;;;;4945890;28;20263;-84
2022/03/20 06:25:35;;;;;;;17.23;12.27;;;6.80;55.30;7.00;97610.00;;;;4949192;28;20247;-87
2022/03/20 06:28:05;;;;;;;15.97;11.53;;;6.80;55.90;7.00;97615.00;;;;4949206;29;20204;-86
2022/03/20 06:30:35;;;;;;;16.80;12.07;;;6.80;55.40;7.10;97609.00;;;;4932061;28;20656;-86
2022/03/20 06:33:03;;;;;;;15.33;11.27;;;6.90;55.50;7.20;97617.00;;;;4939251;28;20210;-85
2022/03/20 06:35:32;;;;;;;16.77;11.73;;;7.00;55.50;7.20;97628.00;;;;4950539;28;20247;-85
2022/03/20 06:38:05;;;;;;;14.63;10.97;;;7.00;55.40;7.30;97629.00;;;;4954214;28;20311;-85
2022/03/20 06:40:34;;;;;;;16.77;12.03;;;7.10;55.30;7.30;97632.00;;;;4947839;28;20611;-87
2022/03/20 06:43:04;;;;;;;15.97;11.27;;;7.10;55.20;7.40;97643.00;;;;4960231;28;20200;-87
2022/03/20 06:45:46;;;;;;;14.47;10.80;;;7.20;55.30;7.50;97636.00;;;;4949537;28;20247;-84
2022/03/20 06:48:14;;;;;;;13.87;10.70;;;7.30;55.30;7.50;97640.00;;;;4943764;28;20203;-84
2022/03/20 06:50:44;;;;;;;13.33;10.00;;;7.30;55.20;7.60;97633.00;;;;4949228;28;20670;-85
2022/03/20 06:53:17;;;;;;;15.47;11.17;;;7.40;55.80;7.70;97643.00;;;;4952060;28;20895;-83
2022/03/20 06:55:48;;;;;;;13.77;10.87;;;7.40;55.20;7.70;97637.00;;;;4949496;28;20246;-84
2022/03/20 06:58:16;;;;;;;13.73;9.83;;;7.50;55.20;7.80;97650.00;;;;4950321;28;20255;-85
2022/03/20 07:00:46;;;;;;;13.57;10.20;;;7.60;55.10;7.80;97650.00;;;;4947474;29;20220;-83
2022/03/20 07:03:17;;;;;;;13.90;10.47;;;7.70;55.10;7.90;97656.00;;;;4939739;28;20546;-83
2022/03/20 07:05:44;;;;;;;13.40;10.17;;;7.70;55.00;8.00;97659.00;;;;4954803;28;20230;-84
2022/03/20 07:08:15;;;;;;;14.70;10.43;;;7.80;55.00;8.10;97656.00;;;;4952665;28;20204;-84
2022/03/20 07:10:43;;;;;;;12.87;9.87;;;8.40;55.10;8.10;97659.00;;;;4946449;28;20577;-85
2022/03/20 07:15:57;;;;;;;13.07;10.13;;;8.00;54.70;8.30;97662.00;;;;4954047;29;20200;-85
2022/03/20 07:18:26;;;;;;;12.53;9.90;;;8.10;54.70;8.40;97665.00;;;;4934495;28;20224;-85
2022/03/20 07:20:55;;;;;;;14.67;10.20;;;8.10;54.70;8.40;97664.00;;;;4948557;29;20196;-85
2022/03/20 07:23:26;;;;;;;14.27;10.40;;;8.20;54.70;8.50;97667.00;;;;4947661;28;20228;-83
2022/03/20 07:31:23;;;;;;;13.57;9.73;;;8.50;54.40;8.80;97679.00;;;;4955782;29;20409;-82
2022/03/20 07:33:50;;;;;;;12.17;9.57;;;8.60;54.30;8.90;97678.00;;;;4954586;28;22058;-84
2022/03/20 07:36:19;;;;;;;15.30;9.87;;;8.70;54.30;9.00;97670.00;;;;4953374;28;20218;-85
2022/03/20 07:38:57;;;;;;;11.90;9.90;;;8.70;54.30;9.10;97675.00;;;;4953539;28;20227;-87
2022/03/20 07:41:24;;;;;;;12.90;9.77;;;8.80;54.20;9.20;97674.00;;;;4954607;28;20200;-85
2022/03/20 07:43:51;;;;;;;15.17;11.03;;;8.90;54.10;9.30;97679.00;;;;4952861;28;20307;-85
2022/03/20 07:46:20;;;;;;;13.97;10.20;;;9.00;54.00;9.50;97674.00;;;;4954190;28;20220;-83
2022/03/20 07:48:50;;;;;;;13.20;10.07;;;9.20;54.10;9.70;97678.00;;;;4953379;28;20208;-85
2022/03/20 07:51:20;;;;;;;12.80;9.20;;;9.40;54.30;9.90;97678.00;;;;4953840;28;20200;-85
2022/03/20 07:53:50;;;;;;;10.47;8.67;;;9.50;54.30;10.10;97682.00;;;;4951184;28;20243;-85
2022/03/20 07:56:22;;;;;;;12.47;10.00;;;9.60;54.20;10.30;97687.00;;;;4935063;28;20299;-85
2022/03/20 07:58:54;;;;;;;12.30;9.40;;;9.80;54.20;10.60;97688.00;;;;4946368;28;20309;-85
2022/03/20 08:01:21;;;;;;;12.40;9.13;;;10.00;54.10;10.80;97693.00;;;;4961877;28;20192;-85
2022/03/20 08:03:49;;;;;;;11.97;9.80;;;10.20;54.00;11.10;97695.00;;;;4971851;28;20215;-85
2022/03/20 08:06:16;;;;;;;10.93;9.17;;;10.40;53.80;11.30;97699.00;;;;4953794;28;20208;-86
2022/03/20 08:08:53;;;;;;;12.37;9.50;;;10.70;53.70;11.50;97703.00;;;;4948314;28;20208;-84
2022/03/20 08:11:21;;;;;;;11.57;9.23;;;10.80;53.10;11.70;97713.00;;;;4952515;29;20200;-87
2022/03/20 08:13:48;;;;;;;13.73;10.17;;;11.10;52.70;12.00;97709.00;;;;4953682;28;20223;-86
2022/03/20 08:16:26;;;;;;;12.93;10.17;;;11.30;52.20;12.20;97721.00;;;;4952948;28;20260;-84
2022/03/20 08:18:56;;;;;;;11.80;9.73;;;11.50;52.00;12.40;97716.00;;;;4948608;28;20219;-84
2022/03/20 08:21:29;;;;;;;11.60;9.87;;;11.60;52.00;12.70;97721.00;;;;4951640;28;20227;-83
2022/03/20 08:24:02;;;;;;;12.27;9.27;;;12.00;52.00;12.90;97713.00;;;;4950600;29;20307;-84
2022/03/20 08:26:31;;;;;;;11.17;9.30;;;12.20;51.90;13.20;97722.00;;;;4952522;28;20669;-83
2022/03/20 08:29:00;;;;;;;12.80;9.37;;;12.40;52.10;13.40;97716.00;;;;4958627;28;20204;-84
2022/03/20 08:31:30;;;;;;;12.63;9.60;;;12.60;51.30;13.60;97725.00;;;;4946414;28;20200;-84
2022/03/20 08:34:08;;;;;;;11.17;8.83;;;12.80;49.40;13.90;97726.00;;;;4951938;28;20216;-84
2022/03/20 08:36:35;;;;;;;12.57;9.80;;;13.00;49.60;14.10;97723.00;;;;4951829;28;20246;-84
2022/03/20 08:39:04;;;;;;;10.70;9.03;;;13.20;47.80;14.40;97712.00;;;;4962160;28;20252;-84
2022/03/20 08:41:34;;;;;;;9.47;8.07;;;13.40;48.40;14.70;97721.00;;;;4942678;28;20209;-85
2022/03/20 08:44:08;;;;;;;25.10;9.17;;;13.60;48.50;15.00;97731.00;;;;4936385;28;20220;-85
2022/03/20 08:46:35;;;;;;;10.53;8.20;;;13.80;47.90;15.40;97737.00;;;;4945322;28;20204;-85
2022/03/20 08:49:06;;;;;;;9.43;8.40;;;14.00;48.70;15.70;97728.00;;;;4949561;28;20783;-84
2022/03/20 08:51:39;;;;;;;11.40;9.00;;;14.30;48.80;16.10;97732.00;;;;4959032;28;20196;-84
2022/03/20 08:54:14;;;;;;;10.07;8.40;;;14.60;48.40;16.40;97741.00;;;;4953961;28;20873;-84
2022/03/20 08:56:43;;;;;;;9.90;8.20;;;14.90;47.50;16.70;97730.00;;;;4939987;28;20196;-83
2022/03/20 08:59:11;;;;;;;12.23;9.50;;;15.20;47.30;17.00;97737.00;;;;4946841;28;20230;-83
2022/03/20 09:01:45;;;;;;;9.97;8.23;;;15.50;46.70;17.20;97737.00;;;;4963226;28;20687;-84
2022/03/20 09:04:18;;;;;;;10.33;8.80;;;15.80;45.50;17.50;97742.00;;;;4960836;28;20215;-83
2022/03/20 09:06:52;;;;;;;9.27;7.83;;;16.20;45.40;17.80;97747.00;;;;4947479;28;20206;-84
2022/03/20 09:09:30;;;;;;;10.40;7.80;;;16.70;45.70;18.10;97742.00;;;;4963786;28;20205;-84
2022/03/20 09:11:57;;;;;;;8.60;7.70;;;17.20;44.70;18.30;97744.00;;;;4945810;28;20842;-83
2022/03/20 09:14:24;;;;;;;9.10;7.90;;;17.60;44.20;18.60;97745.00;;;;4952763;28;20640;-83
2022/03/20 09:19:49;;;;;;;9.03;7.83;;;18.60;43.90;19.20;97746.00;;;;4958640;28;20598;-83
2022/03/20 09:22:19;;;;;;;8.50;7.63;;;19.20;43.60;19.50;97743.00;;;;4955281;28;20210;-83
2022/03/20 09:25:00;;;;;;;8.83;7.87;;;19.60;43.00;19.80;97750.00;;;;4964719;28;20228;-83
2022/03/20 09:27:48;;;;;;;10.17;8.27;;;20.10;41.10;20.00;97755.00;;;;4948491;28;20251;-83
2022/03/20 09:30:16;;;;;;;8.93;7.80;;;20.40;39.20;20.20;97758.00;;;;4956850;28;20279;-82
2022/03/20 09:32:46;;;;;;;8.67;7.77;;;20.70;39.50;20.40;97762.00;;;;4943901;28;20259;-82
2022/03/20 09:35:23;;;;;;;7.97;7.07;;;21.00;39.10;20.60;97767.00;;;;4946642;28;20211;-82
2022/03/20 09:37:50;;;;;;;9.67;8.00;;;21.20;38.60;20.80;97772.00;;;;4949853;28;20203;-84
2022/03/20 09:40:22;;;;;;;7.90;7.03;;;21.40;38.70;21.00;97772.00;;;;4944715;28;20620;-83
2022/03/20 09:42:52;;;;;;;8.50;7.63;;;21.50;38.00;21.10;97776.00;;;;4942420;28;20200;-83
2022/03/20 09:45:21;;;;;;;7.83;6.87;;;21.70;37.30;21.20;97775.00;;;;4945668;28;20688;-83
2022/03/20 09:47:54;;;;;;;8.57;7.67;;;21.80;36.90;21.30;97776.00;;;;4965342;28;20198;-83
2022/03/20 09:50:27;;;;;;;7.43;6.73;;;21.80;36.40;21.40;97767.00;;;;4956017;28;20290;-83
2022/03/20 09:52:54;;;;;;;7.43;6.40;;;21.80;36.50;21.40;97766.00;;;;4944498;28;20219;-83
2022/03/20 09:55:30;;;;;;;8.23;7.30;;;21.80;36.60;21.50;97762.00;;;;4951404;28;20307;-83
2022/03/20 09:58:01;;;;;;;7.87;7.00;;;21.80;36.00;21.50;97771.00;;;;4938688;28;20234;-83
2022/03/20 10:00:41;;;;;;;7.57;6.77;;;21.70;36.00;21.50;97768.00;;;;4956106;28;20229;-83
2022/03/20 10:03:24;;;;;;;7.60;6.53;;;21.70;36.20;21.50;97768.00;;;;4955492;28;20566;-84
2022/03/20 10:06:16;;;;;;;9.17;7.03;;;21.70;36.10;21.60;97762.00;;;;4948773;28;20245;-83
2022/03/20 10:09:11;;;;;;;10.97;8.50;;;21.70;36.40;21.60;97762.00;;;;4952555;28;20204;-83
2022/03/20 10:11:49;;;;;;;8.80;7.10;;;21.70;35.50;21.60;97765.00;;;;4949908;28;20227;-82
2022/03/20 10:14:18;;;;;;;8.07;6.70;;;21.70;36.40;21.60;97767.00;;;;4959310;28;20215;-86
2022/03/20 10:16:53;;;;;;;7.27;6.57;;;21.70;36.30;21.50;97760.00;;;;4949433;28;20208;-83
2022/03/20 10:19:34;;;;;;;6.97;6.27;;;21.70;36.10;21.50;97755.00;;;;4961278;28;20222;-84
2022/03/20 10:22:17;;;;;;;8.60;7.70;;;21.80;35.00;21.40;97767.00;;;;4964684;28;20199;-83
2022/03/20 10:25:01;;;;;;;7.70;6.87;;;21.80;34.40;21.40;97767.00;;;;4943152;28;20619;-82
2022/03/20 10:27:35;;;;;;;7.17;6.47;;;21.80;34.80;21.30;97767.00;;;;4945850;28;20267;-82
2022/03/20 10:30:02;;;;;;;7.73;7.00;;;21.90;35.70;21.40;97779.00;;;;4939852;29;20208;-85
2022/03/20 10:32:29;;;;;;;6.90;6.20;;;22.00;35.10;21.40;97779.00;;;;4946024;28;20576;-82
2022/03/20 10:35:11;;;;;;;7.67;6.83;;;22.10;35.40;21.40;97780.00;;;;4952015;28;20291;-82
2022/03/20 10:37:54;;;;;;;7.43;6.23;;;22.20;34.20;21.50;97774.00;;;;4953137;28;20234;-82
2022/03/20 10:40:27;;;;;;;7.07;6.37;;;22.30;34.20;21.50;97771.00;;;;4949111;28;20220;-84
2022/03/20 10:43:15;;;;;;;6.47;5.77;;;22.50;34.10;21.60;97781.00;;;;4946872;28;20311;-82
2022/03/20 10:46:00;;;;;;;6.87;6.17;;;22.60;34.10;21.70;97784.00;;;;4951076;28;20669;-83
2022/03/20 10:48:43;;;;;;;7.93;6.60;;;22.70;33.00;21.70;97781.00;;;;4950095;28;20209;-81
2022/03/20 10:51:11;;;;;;;6.73;6.13;;;22.80;32.90;21.70;97788.00;;;;4960773;28;20259;-83
2022/03/20 10:53:55;;;;;;;5.73;5.23;;;22.80;33.70;21.80;97784.00;;;;4955186;28;20649;-82
2022/03/20 10:56:23;;;;;;;7.03;6.33;;;22.90;32.80;21.80;97776.00;;;;4950568;28;20204;-84
2022/03/20 10:58:52;;;;;;;8.63;7.00;;;22.80;32.90;21.80;97786.00;;;;4948827;28;20227;-84
2022/03/20 11:01:19;;;;;;;8.20;6.93;;;22.70;33.10;21.70;97786.00;;;;4953928;28;20287;-82
2022/03/20 11:03:49;;;;;;;8.20;6.77;;;22.60;32.50;21.70;97791.00;;;;4941533;28;20226;-82
2022/03/20 11:06:16;;;;;;;7.63;6.83;;;22.40;32.50;21.60;97780.00;;;;4952852;28;20229;-81
2022/03/20 11:08:43;;;;;;;8.37;7.03;;;22.20;32.70;21.40;97792.00;;;;4966954;28;20249;-81
2022/03/20 11:11:12;;;;;;;7.83;7.03;;;21.90;32.90;21.20;97781.00;;;;4955555;28;20202;-81
2022/03/20 11:13:46;;;;;;;7.13;6.53;;;21.70;32.70;21.00;97779.00;;;;4944458;29;20245;-84
2022/03/20 11:16:16;;;;;;;7.83;7.03;;;21.40;32.90;20.90;97776.00;;;;4952985;29;20223;-84
2022/03/20 11:18:49;;;;;;;8.47;7.37;;;21.20;33.30;20.70;97776.00;;;;4954109;28;20230;-84
2022/03/20 11:21:21;;;;;;;6.93;6.27;;;20.90;33.20;20.50;97778.00;;;;4954401;28;20228;-83
2022/03/20 11:23:49;;;;;;;6.63;6.00;;;20.70;33.40;20.40;97767.00;;;;4948841;28;20579;-85
2022/03/20 11:26:21;;;;;;;6.63;5.70;;;20.50;33.60;20.20;97769.00;;;;4955436;28;20239;-84
2022/03/20 11:29:01;;;;;;;6.67;6.03;;;20.20;33.40;20.10;97772.00;;;;4953902;29;20224;-84
2022/03/20 11:31:34;;;;;;;6.83;6.13;;;20.10;33.60;19.90;97772.00;;;;4950715;29;20894;-83
2022/03/20 11:34:04;;;;;;;6.80;6.20;;;19.90;33.80;19.80;97765.00;;;;4953903;29;20231;-85
2022/03/20 11:36:31;;;;;;;7.97;6.40;;;19.70;33.80;19.70;97772.00;;;;4945352;28;20216;-84
2022/03/20 11:39:21;;;;;;;6.10;5.60;;;19.60;33.90;19.60;97765.00;;;;4948224;28;20258;-84
2022/03/20 11:42:26;;;;;;;7.03;6.10;;;19.40;33.80;19.40;97761.00;;;;4938882;28;20835;-84
2022/03/20 11:45:10;;;;;;;7.97;6.27;;;19.30;33.70;19.30;97749.00;;;;4942666;28;20685;-84